Terminal Aerodrome Forecast
Issued by NWS

Home | Current Version | Previous Version | Text Only | Print | Product List | Glossary On
Versions: 1 2 3 4 5 6 7 8 9 10 11 12 13 14 15 16 17 18 19 20 21 22 23 24 25
592
FTUS43 KSGF 181130 CCA
TAFBBG
TAF COR
KBBG 181130Z 1812/1912 26005KT P6SM OVC020
     FM181600 26005KT P6SM BKN025
     FM181800 26005KT P6SM SCT100
     FM190000 18005KT P6SM SKC
     FM190800 23005KT P6SM BKN020 BKN040
     FM191000 VRB03KT P6SM BKN015=

USA.gov is the U.S. government's official web portal to all federal, state and local government web resources and services.